sensor_id;sensor_type;location;lat;lon;timestamp;P1;durP1;ratioP1;P2;durP2;ratioP2
71730;SDS011;65964;43.496;3.710;2023-12-04T00:00:36;17.00;;;8.95;;
71730;SDS011;65964;43.496;3.710;2023-12-04T00:03:02;17.63;;;9.57;;
71730;SDS011;65964;43.496;3.710;2023-12-04T00:05:28;18.52;;;8.55;;
71730;SDS011;65964;43.496;3.710;2023-12-04T00:07:54;15.40;;;8.77;;
71730;SDS011;65964;43.496;3.710;2023-12-04T00:10:20;15.27;;;8.77;;
71730;SDS011;65964;43.496;3.710;2023-12-04T00:12:46;14.32;;;8.13;;
71730;SDS011;65964;43.496;3.710;2023-12-04T00:15:12;15.15;;;7.75;;
71730;SDS011;65964;43.496;3.710;2023-12-04T00:17:38;14.43;;;8.15;;
71730;SDS011;65964;43.496;3.710;2023-12-04T00:20:08;14.07;;;7.70;;
71730;SDS011;65964;43.496;3.710;2023-12-04T00:22:34;17.10;;;9.30;;
71730;SDS011;65964;43.496;3.710;2023-12-04T00:25:01;17.23;;;8.77;;
71730;SDS011;65964;43.496;3.710;2023-12-04T00:27:28;15.13;;;8.35;;
71730;SDS011;65964;43.496;3.710;2023-12-04T00:29:54;17.40;;;9.13;;
71730;SDS011;65964;43.496;3.710;2023-12-04T00:32:20;15.50;;;8.30;;
71730;SDS011;65964;43.496;3.710;2023-12-04T00:34:46;17.52;;;8.82;;
71730;SDS011;65964;43.496;3.710;2023-12-04T00:37:12;13.93;;;8.02;;
71730;SDS011;65964;43.496;3.710;2023-12-04T00:39:38;15.27;;;8.60;;
71730;SDS011;65964;43.496;3.710;2023-12-04T00:42:05;14.88;;;8.55;;
71730;SDS011;65964;43.496;3.710;2023-12-04T00:44:31;14.07;;;8.20;;
71730;SDS011;65964;43.496;3.710;2023-12-04T00:46:57;14.95;;;9.15;;
71730;SDS011;65964;43.496;3.710;2023-12-04T00:49:23;13.82;;;7.10;;
71730;SDS011;65964;43.496;3.710;2023-12-04T00:51:49;14.00;;;7.32;;
71730;SDS011;65964;43.496;3.710;2023-12-04T00:54:15;12.85;;;7.50;;
71730;SDS011;65964;43.496;3.710;2023-12-04T00:56:41;14.05;;;7.75;;
71730;SDS011;65964;43.496;3.710;2023-12-04T00:59:08;11.23;;;6.95;;
71730;SDS011;65964;43.496;3.710;2023-12-04T01:01:37;11.88;;;6.97;;
71730;SDS011;65964;43.496;3.710;2023-12-04T01:04:03;12.25;;;6.90;;
71730;SDS011;65964;43.496;3.710;2023-12-04T01:06:29;13.25;;;7.60;;
71730;SDS011;65964;43.496;3.710;2023-12-04T01:08:55;13.63;;;7.10;;
71730;SDS011;65964;43.496;3.710;2023-12-04T01:11:21;12.57;;;7.40;;
71730;SDS011;65964;43.496;3.710;2023-12-04T01:13:48;13.65;;;7.47;;
71730;SDS011;65964;43.496;3.710;2023-12-04T01:16:14;13.65;;;8.02;;
71730;SDS011;65964;43.496;3.710;2023-12-04T01:18:41;13.95;;;7.20;;
71730;SDS011;65964;43.496;3.710;2023-12-04T01:21:07;14.15;;;7.90;;
71730;SDS011;65964;43.496;3.710;2023-12-04T01:23:34;13.20;;;6.78;;
71730;SDS011;65964;43.496;3.710;2023-12-04T01:26:00;14.18;;;8.15;;
71730;SDS011;65964;43.496;3.710;2023-12-04T01:28:26;13.77;;;7.90;;
71730;SDS011;65964;43.496;3.710;2023-12-04T01:30:52;12.68;;;7.38;;
71730;SDS011;65964;43.496;3.710;2023-12-04T01:33:18;12.55;;;6.88;;
71730;SDS011;65964;43.496;3.710;2023-12-04T01:35:44;16.30;;;7.70;;
71730;SDS011;65964;43.496;3.710;2023-12-04T01:38:10;15.85;;;7.88;;
71730;SDS011;65964;43.496;3.710;2023-12-04T01:40:36;11.02;;;6.60;;
71730;SDS011;65964;43.496;3.710;2023-12-04T01:43:02;13.30;;;6.90;;
71730;SDS011;65964;43.496;3.710;2023-12-04T01:45:28;12.13;;;7.30;;
71730;SDS011;65964;43.496;3.710;2023-12-04T01:47:54;14.07;;;7.50;;
71730;SDS011;65964;43.496;3.710;2023-12-04T01:50:20;14.23;;;8.02;;
71730;SDS011;65964;43.496;3.710;2023-12-04T01:52:46;15.13;;;8.50;;
71730;SDS011;65964;43.496;3.710;2023-12-04T01:55:12;17.08;;;9.93;;
71730;SDS011;65964;43.496;3.710;2023-12-04T01:57:39;15.50;;;8.43;;
71730;SDS011;65964;43.496;3.710;2023-12-04T02:00:05;14.15;;;8.38;;
71730;SDS011;65964;43.496;3.710;2023-12-04T02:02:37;13.80;;;8.50;;
71730;SDS011;65964;43.496;3.710;2023-12-04T02:05:03;14.23;;;7.60;;
71730;SDS011;65964;43.496;3.710;2023-12-04T02:07:30;14.45;;;7.57;;
71730;SDS011;65964;43.496;3.710;2023-12-04T02:09:56;14.55;;;6.63;;
71730;SDS011;65964;43.496;3.710;2023-12-04T02:12:22;13.57;;;7.72;;
71730;SDS011;65964;43.496;3.710;2023-12-04T02:14:49;12.23;;;7.07;;
71730;SDS011;65964;43.496;3.710;2023-12-04T02:17:15;13.45;;;6.60;;
71730;SDS011;65964;43.496;3.710;2023-12-04T02:19:42;13.60;;;6.97;;
71730;SDS011;65964;43.496;3.710;2023-12-04T02:22:08;12.20;;;7.40;;
71730;SDS011;65964;43.496;3.710;2023-12-04T02:24:34;10.98;;;6.35;;
71730;SDS011;65964;43.496;3.710;2023-12-04T02:29:59;13.35;;;7.15;;
71730;SDS011;65964;43.496;3.710;2023-12-04T02:32:29;15.25;;;7.25;;
71730;SDS011;65964;43.496;3.710;2023-12-04T02:34:56;12.57;;;7.28;;
71730;SDS011;65964;43.496;3.710;2023-12-04T02:37:22;13.73;;;8.00;;
71730;SDS011;65964;43.496;3.710;2023-12-04T02:39:49;14.00;;;7.30;;
71730;SDS011;65964;43.496;3.710;2023-12-04T02:42:20;12.35;;;7.07;;
71730;SDS011;65964;43.496;3.710;2023-12-04T02:44:46;13.20;;;7.32;;
71730;SDS011;65964;43.496;3.710;2023-12-04T02:47:12;14.35;;;7.57;;
71730;SDS011;65964;43.496;3.710;2023-12-04T02:49:38;12.68;;;7.15;;
71730;SDS011;65964;43.496;3.710;2023-12-04T02:52:04;11.68;;;6.95;;
71730;SDS011;65964;43.496;3.710;2023-12-04T02:54:30;12.60;;;7.05;;
71730;SDS011;65964;43.496;3.710;2023-12-04T02:56:56;13.50;;;8.00;;
71730;SDS011;65964;43.496;3.710;2023-12-04T02:59:22;13.63;;;7.38;;
71730;SDS011;65964;43.496;3.710;2023-12-04T03:01:48;14.85;;;7.40;;
71730;SDS011;65964;43.496;3.710;2023-12-04T03:04:14;14.18;;;7.38;;
71730;SDS011;65964;43.496;3.710;2023-12-04T03:06:40;13.40;;;7.82;;
71730;SDS011;65964;43.496;3.710;2023-12-04T03:09:06;15.32;;;7.75;;
71730;SDS011;65964;43.496;3.710;2023-12-04T03:11:32;13.10;;;7.80;;
71730;SDS011;65964;43.496;3.710;2023-12-04T03:13:59;14.55;;;7.70;;
71730;SDS011;65964;43.496;3.710;2023-12-04T03:16:26;16.23;;;9.32;;
71730;SDS011;65964;43.496;3.710;2023-12-04T03:18:52;12.93;;;7.22;;
71730;SDS011;65964;43.496;3.710;2023-12-04T03:21:18;11.10;;;6.53;;
71730;SDS011;65964;43.496;3.710;2023-12-04T03:23:44;13.80;;;7.38;;
71730;SDS011;65964;43.496;3.710;2023-12-04T03:26:10;13.30;;;6.60;;
71730;SDS011;65964;43.496;3.710;2023-12-04T03:28:38;10.63;;;5.80;;
71730;SDS011;65964;43.496;3.710;2023-12-04T03:31:05;13.90;;;6.90;;
71730;SDS011;65964;43.496;3.710;2023-12-04T03:33:31;12.77;;;7.13;;
71730;SDS011;65964;43.496;3.710;2023-12-04T03:35:58;11.68;;;7.05;;
71730;SDS011;65964;43.496;3.710;2023-12-04T03:38:25;14.43;;;7.47;;
71730;SDS011;65964;43.496;3.710;2023-12-04T03:40:51;13.32;;;7.13;;
71730;SDS011;65964;43.496;3.710;2023-12-04T03:43:17;14.30;;;7.28;;
71730;SDS011;65964;43.496;3.710;2023-12-04T03:45:43;13.40;;;7.30;;
71730;SDS011;65964;43.496;3.710;2023-12-04T03:48:09;15.52;;;7.25;;
71730;SDS011;65964;43.496;3.710;2023-12-04T03:50:35;11.93;;;7.38;;
71730;SDS011;65964;43.496;3.710;2023-12-04T03:53:01;11.35;;;6.88;;
71730;SDS011;65964;43.496;3.710;2023-12-04T03:55:27;13.13;;;7.63;;
71730;SDS011;65964;43.496;3.710;2023-12-04T03:57:56;13.35;;;7.90;;
71730;SDS011;65964;43.496;3.710;2023-12-04T04:00:22;12.82;;;7.07;;
71730;SDS011;65964;43.496;3.710;2023-12-04T04:02:48;15.18;;;7.05;;
71730;SDS011;65964;43.496;3.710;2023-12-04T04:05:15;12.95;;;7.10;;
71730;SDS011;65964;43.496;3.710;2023-12-04T04:07:41;13.80;;;7.18;;
71730;SDS011;65964;43.496;3.710;2023-12-04T04:10:07;11.95;;;6.80;;
71730;SDS011;65964;43.496;3.710;2023-12-04T04:12:33;12.98;;;7.78;;
71730;SDS011;65964;43.496;3.710;2023-12-04T04:14:59;14.20;;;7.57;;
71730;SDS011;65964;43.496;3.710;2023-12-04T04:17:26;12.07;;;6.53;;
71730;SDS011;65964;43.496;3.710;2023-12-04T04:19:52;13.35;;;6.78;;
71730;SDS011;65964;43.496;3.710;2023-12-04T04:22:21;14.65;;;7.97;;
71730;SDS011;65964;43.496;3.710;2023-12-04T04:24:48;14.10;;;7.30;;
71730;SDS011;65964;43.496;3.710;2023-12-04T04:27:14;13.13;;;6.65;;
71730;SDS011;65964;43.496;3.710;2023-12-04T04:29:40;17.08;;;7.22;;
71730;SDS011;65964;43.496;3.710;2023-12-04T04:32:06;15.15;;;6.82;;
71730;SDS011;65964;43.496;3.710;2023-12-04T04:34:32;14.95;;;6.75;;
71730;SDS011;65964;43.496;3.710;2023-12-04T04:36:58;12.77;;;6.60;;
71730;SDS011;65964;43.496;3.710;2023-12-04T04:39:24;12.27;;;7.10;;
71730;SDS011;65964;43.496;3.710;2023-12-04T04:41:50;14.40;;;7.03;;
71730;SDS011;65964;43.496;3.710;2023-12-04T04:44:16;15.80;;;7.43;;
71730;SDS011;65964;43.496;3.710;2023-12-04T04:46:42;12.70;;;7.18;;
71730;SDS011;65964;43.496;3.710;2023-12-04T04:49:08;14.57;;;7.82;;
71730;SDS011;65964;43.496;3.710;2023-12-04T04:51:34;19.13;;;9.68;;
71730;SDS011;65964;43.496;3.710;2023-12-04T04:54:00;20.85;;;10.40;;
71730;SDS011;65964;43.496;3.710;2023-12-04T04:56:27;14.95;;;7.47;;
71730;SDS011;65964;43.496;3.710;2023-12-04T04:58:53;17.52;;;7.63;;
71730;SDS011;65964;43.496;3.710;2023-12-04T05:01:19;18.40;;;8.13;;
71730;SDS011;65964;43.496;3.710;2023-12-04T05:03:45;15.77;;;6.97;;
71730;SDS011;65964;43.496;3.710;2023-12-04T05:06:11;15.32;;;7.78;;
71730;SDS011;65964;43.496;3.710;2023-12-04T05:08:37;14.90;;;7.18;;
71730;SDS011;65964;43.496;3.710;2023-12-04T05:11:03;15.38;;;6.72;;
71730;SDS011;65964;43.496;3.710;2023-12-04T05:13:29;13.90;;;7.40;;
71730;SDS011;65964;43.496;3.710;2023-12-04T05:15:55;14.43;;;7.60;;
71730;SDS011;65964;43.496;3.710;2023-12-04T05:18:21;19.30;;;7.60;;
71730;SDS011;65964;43.496;3.710;2023-12-04T05:20:47;18.48;;;7.53;;
71730;SDS011;65964;43.496;3.710;2023-12-04T05:23:13;16.70;;;8.13;;
71730;SDS011;65964;43.496;3.710;2023-12-04T05:25:39;104.70;;;16.42;;
71730;SDS011;65964;43.496;3.710;2023-12-04T05:28:06;20.08;;;7.28;;
71730;SDS011;65964;43.496;3.710;2023-12-04T05:30:32;26.05;;;7.40;;
71730;SDS011;65964;43.496;3.710;2023-12-04T05:32:58;20.77;;;7.03;;
71730;SDS011;65964;43.496;3.710;2023-12-04T05:35:24;13.95;;;6.78;;
71730;SDS011;65964;43.496;3.710;2023-12-04T05:37:50;12.98;;;3.80;;
71730;SDS011;65964;43.496;3.710;2023-12-04T05:40:16;10.95;;;3.20;;
71730;SDS011;65964;43.496;3.710;2023-12-04T05:42:42;10.35;;;2.75;;
71730;SDS011;65964;43.496;3.710;2023-12-04T05:45:08;15.70;;;3.72;;
71730;SDS011;65964;43.496;3.710;2023-12-04T05:47:34;17.52;;;3.67;;
71730;SDS011;65964;43.496;3.710;2023-12-04T05:50:00;14.35;;;3.92;;
71730;SDS011;65964;43.496;3.710;2023-12-04T05:52:26;10.45;;;3.15;;
71730;SDS011;65964;43.496;3.710;2023-12-04T05:54:53;14.60;;;3.35;;
71730;SDS011;65964;43.496;3.710;2023-12-04T05:57:19;16.08;;;3.15;;
71730;SDS011;65964;43.496;3.710;2023-12-04T05:59:45;15.23;;;3.03;;
71730;SDS011;65964;43.496;3.710;2023-12-04T06:02:11;15.63;;;3.60;;
71730;SDS011;65964;43.496;3.710;2023-12-04T06:04:37;16.20;;;3.42;;
71730;SDS011;65964;43.496;3.710;2023-12-04T06:07:03;19.52;;;3.47;;
71730;SDS011;65964;43.496;3.710;2023-12-04T06:09:29;22.90;;;4.28;;
71730;SDS011;65964;43.496;3.710;2023-12-04T06:11:55;17.70;;;3.58;;
71730;SDS011;65964;43.496;3.710;2023-12-04T06:14:21;14.07;;;3.65;;
71730;SDS011;65964;43.496;3.710;2023-12-04T06:16:47;20.02;;;3.95;;
71730;SDS011;65964;43.496;3.710;2023-12-04T06:19:13;17.30;;;3.10;;
71730;SDS011;65964;43.496;3.710;2023-12-04T06:21:40;19.45;;;3.63;;
71730;SDS011;65964;43.496;3.710;2023-12-04T06:24:06;14.35;;;3.42;;
71730;SDS011;65964;43.496;3.710;2023-12-04T06:26:33;16.42;;;3.25;;
71730;SDS011;65964;43.496;3.710;2023-12-04T06:29:01;15.55;;;3.40;;
71730;SDS011;65964;43.496;3.710;2023-12-04T06:31:27;15.77;;;3.42;;
71730;SDS011;65964;43.496;3.710;2023-12-04T06:33:54;18.63;;;3.10;;
71730;SDS011;65964;43.496;3.710;2023-12-04T06:36:20;17.50;;;3.60;;
71730;SDS011;65964;43.496;3.710;2023-12-04T06:38:47;16.40;;;3.53;;
71730;SDS011;65964;43.496;3.710;2023-12-04T06:41:14;21.52;;;3.75;;
71730;SDS011;65964;43.496;3.710;2023-12-04T06:43:40;19.05;;;4.05;;
71730;SDS011;65964;43.496;3.710;2023-12-04T06:46:06;77.40;;;6.97;;
71730;SDS011;65964;43.496;3.710;2023-12-04T06:48:33;22.13;;;4.93;;
71730;SDS011;65964;43.496;3.710;2023-12-04T06:50:59;28.77;;;6.90;;
71730;SDS011;65964;43.496;3.710;2023-12-04T06:53:25;60.25;;;6.75;;
71730;SDS011;65964;43.496;3.710;2023-12-04T06:55:52;26.63;;;5.15;;
71730;SDS011;65964;43.496;3.710;2023-12-04T06:58:18;24.88;;;5.25;;
71730;SDS011;65964;43.496;3.710;2023-12-04T07:00:44;35.00;;;5.90;;
71730;SDS011;65964;43.496;3.710;2023-12-04T07:03:10;21.40;;;5.45;;
71730;SDS011;65964;43.496;3.710;2023-12-04T07:05:36;32.65;;;6.68;;
71730;SDS011;65964;43.496;3.710;2023-12-04T07:08:02;29.05;;;6.32;;
71730;SDS011;65964;43.496;3.710;2023-12-04T07:10:28;34.50;;;7.03;;
71730;SDS011;65964;43.496;3.710;2023-12-04T07:12:54;32.83;;;8.10;;
71730;SDS011;65964;43.496;3.710;2023-12-04T07:15:20;45.47;;;8.65;;
71730;SDS011;65964;43.496;3.710;2023-12-04T07:17:46;46.70;;;9.77;;
71730;SDS011;65964;43.496;3.710;2023-12-04T07:20:12;42.33;;;10.50;;
71730;SDS011;65964;43.496;3.710;2023-12-04T07:22:38;43.90;;;8.18;;
71730;SDS011;65964;43.496;3.710;2023-12-04T07:25:05;39.50;;;9.10;;
71730;SDS011;65964;43.496;3.710;2023-12-04T07:27:34;26.02;;;6.80;;
71730;SDS011;65964;43.496;3.710;2023-12-04T07:30:00;29.23;;;6.78;;
71730;SDS011;65964;43.496;3.710;2023-12-04T07:32:27;28.33;;;8.02;;
71730;SDS011;65964;43.496;3.710;2023-12-04T07:34:53;27.33;;;7.63;;
71730;SDS011;65964;43.496;3.710;2023-12-04T07:37:19;27.38;;;7.30;;
71730;SDS011;65964;43.496;3.710;2023-12-04T07:39:45;20.80;;;7.30;;
71730;SDS011;65964;43.496;3.710;2023-12-04T07:42:12;34.45;;;7.72;;
71730;SDS011;65964;43.496;3.710;2023-12-04T07:44:38;27.20;;;8.38;;
71730;SDS011;65964;43.496;3.710;2023-12-04T07:47:04;27.30;;;10.65;;
71730;SDS011;65964;43.496;3.710;2023-12-04T07:49:30;33.63;;;11.13;;
71730;SDS011;65964;43.496;3.710;2023-12-04T07:51:56;32.60;;;11.85;;
71730;SDS011;65964;43.496;3.710;2023-12-04T07:54:22;34.42;;;11.65;;
71730;SDS011;65964;43.496;3.710;2023-12-04T07:56:51;34.40;;;13.07;;
71730;SDS011;65964;43.496;3.710;2023-12-04T07:59:18;42.22;;;14.80;;
71730;SDS011;65964;43.496;3.710;2023-12-04T08:01:44;44.72;;;17.85;;
71730;SDS011;65964;43.496;3.710;2023-12-04T08:04:10;35.65;;;14.35;;
71730;SDS011;65964;43.496;3.710;2023-12-04T08:06:36;34.40;;;13.55;;
71730;SDS011;65964;43.496;3.710;2023-12-04T08:09:02;39.50;;;12.80;;
71730;SDS011;65964;43.496;3.710;2023-12-04T08:11:30;31.60;;;12.95;;
71730;SDS011;65964;43.496;3.710;2023-12-04T08:13:56;30.40;;;13.13;;
71730;SDS011;65964;43.496;3.710;2023-12-04T08:16:22;31.40;;;13.43;;
71730;SDS011;65964;43.496;3.710;2023-12-04T08:18:48;32.42;;;13.60;;
71730;SDS011;65964;43.496;3.710;2023-12-04T08:21:14;37.58;;;14.88;;
71730;SDS011;65964;43.496;3.710;2023-12-04T08:23:41;28.20;;;8.52;;
71730;SDS011;65964;43.496;3.710;2023-12-04T08:26:07;34.38;;;7.43;;
71730;SDS011;65964;43.496;3.710;2023-12-04T08:28:33;24.50;;;6.78;;
71730;SDS011;65964;43.496;3.710;2023-12-04T08:31:00;33.47;;;8.88;;
71730;SDS011;65964;43.496;3.710;2023-12-04T08:33:26;30.73;;;8.32;;
71730;SDS011;65964;43.496;3.710;2023-12-04T08:35:52;28.58;;;8.88;;
71730;SDS011;65964;43.496;3.710;2023-12-04T08:38:18;26.75;;;6.93;;
71730;SDS011;65964;43.496;3.710;2023-12-04T08:40:44;27.10;;;6.82;;
71730;SDS011;65964;43.496;3.710;2023-12-04T08:43:10;24.88;;;7.40;;
71730;SDS011;65964;43.496;3.710;2023-12-04T08:45:36;24.95;;;7.00;;
71730;SDS011;65964;43.496;3.710;2023-12-04T08:48:02;28.00;;;10.00;;
71730;SDS011;65964;43.496;3.710;2023-12-04T08:50:28;22.70;;;8.10;;
71730;SDS011;65964;43.496;3.710;2023-12-04T08:52:54;21.50;;;8.05;;
71730;SDS011;65964;43.496;3.710;2023-12-04T08:55:20;25.40;;;7.18;;
71730;SDS011;65964;43.496;3.710;2023-12-04T08:57:46;31.15;;;12.20;;
71730;SDS011;65964;43.496;3.710;2023-12-04T09:00:13;33.20;;;15.70;;
71730;SDS011;65964;43.496;3.710;2023-12-04T09:02:39;32.30;;;14.65;;
71730;SDS011;65964;43.496;3.710;2023-12-04T09:05:05;36.10;;;16.60;;
71730;SDS011;65964;43.496;3.710;2023-12-04T09:07:31;26.92;;;12.73;;
71730;SDS011;65964;43.496;3.710;2023-12-04T09:09:57;35.63;;;17.75;;
71730;SDS011;65964;43.496;3.710;2023-12-04T09:12:24;33.08;;;16.90;;
71730;SDS011;65964;43.496;3.710;2023-12-04T09:14:51;38.42;;;23.70;;
71730;SDS011;65964;43.496;3.710;2023-12-04T09:17:17;24.42;;;13.85;;
71730;SDS011;65964;43.496;3.710;2023-12-04T09:19:43;16.88;;;9.27;;
71730;SDS011;65964;43.496;3.710;2023-12-04T09:22:09;18.02;;;8.93;;
71730;SDS011;65964;43.496;3.710;2023-12-04T09:24:35;16.63;;;8.80;;
71730;SDS011;65964;43.496;3.710;2023-12-04T09:27:01;13.80;;;6.97;;
71730;SDS011;65964;43.496;3.710;2023-12-04T09:29:27;16.67;;;7.90;;
71730;SDS011;65964;43.496;3.710;2023-12-04T09:31:53;16.40;;;8.25;;
71730;SDS011;65964;43.496;3.710;2023-12-04T09:34:19;22.52;;;8.85;;
71730;SDS011;65964;43.496;3.710;2023-12-04T09:36:46;16.80;;;8.60;;
71730;SDS011;65964;43.496;3.710;2023-12-04T09:39:13;20.58;;;9.15;;
71730;SDS011;65964;43.496;3.710;2023-12-04T09:41:39;20.58;;;9.43;;
71730;SDS011;65964;43.496;3.710;2023-12-04T09:44:06;19.30;;;9.40;;
71730;SDS011;65964;43.496;3.710;2023-12-04T09:46:33;19.45;;;9.50;;
71730;SDS011;65964;43.496;3.710;2023-12-04T09:48:59;22.45;;;10.20;;
71730;SDS011;65964;43.496;3.710;2023-12-04T09:51:26;21.45;;;10.00;;
71730;SDS011;65964;43.496;3.710;2023-12-04T09:53:53;18.98;;;10.95;;
71730;SDS011;65964;43.496;3.710;2023-12-04T09:56:22;20.48;;;11.48;;
71730;SDS011;65964;43.496;3.710;2023-12-04T09:58:51;19.85;;;10.75;;
71730;SDS011;65964;43.496;3.710;2023-12-04T10:01:18;24.38;;;11.27;;
71730;SDS011;65964;43.496;3.710;2023-12-04T10:03:46;26.73;;;12.63;;
71730;SDS011;65964;43.496;3.710;2023-12-04T10:06:14;23.98;;;10.63;;
71730;SDS011;65964;43.496;3.710;2023-12-04T10:08:42;15.52;;;8.52;;
71730;SDS011;65964;43.496;3.710;2023-12-04T10:11:09;18.80;;;7.72;;
71730;SDS011;65964;43.496;3.710;2023-12-04T10:13:35;18.85;;;7.70;;
71730;SDS011;65964;43.496;3.710;2023-12-04T10:16:01;14.68;;;7.20;;
71730;SDS011;65964;43.496;3.710;2023-12-04T10:18:28;17.67;;;7.25;;
71730;SDS011;65964;43.496;3.710;2023-12-04T10:20:55;18.25;;;7.70;;
71730;SDS011;65964;43.496;3.710;2023-12-04T10:23:21;23.10;;;9.77;;
71730;SDS011;65964;43.496;3.710;2023-12-04T10:25:48;19.40;;;9.48;;
71730;SDS011;65964;43.496;3.710;2023-12-04T10:28:17;20.73;;;8.45;;
71730;SDS011;65964;43.496;3.710;2023-12-04T10:30:44;18.70;;;9.60;;
71730;SDS011;65964;43.496;3.710;2023-12-04T10:33:11;24.13;;;10.85;;
71730;SDS011;65964;43.496;3.710;2023-12-04T10:35:39;24.50;;;14.52;;
71730;SDS011;65964;43.496;3.710;2023-12-04T10:38:06;22.17;;;12.40;;
71730;SDS011;65964;43.496;3.710;2023-12-04T10:40:33;26.88;;;11.85;;
71730;SDS011;65964;43.496;3.710;2023-12-04T10:45:35;26.75;;;13.40;;
71730;SDS011;65964;43.496;3.710;2023-12-04T10:48:02;26.67;;;14.45;;
71730;SDS011;65964;43.496;3.710;2023-12-04T10:50:31;25.15;;;12.63;;
71730;SDS011;65964;43.496;3.710;2023-12-04T10:52:58;25.48;;;10.18;;
71730;SDS011;65964;43.496;3.710;2023-12-04T10:55:25;19.60;;;9.52;;
71730;SDS011;65964;43.496;3.710;2023-12-04T10:57:52;21.30;;;9.60;;
71730;SDS011;65964;43.496;3.710;2023-12-04T11:00:19;29.23;;;10.93;;
71730;SDS011;65964;43.496;3.710;2023-12-04T11:02:46;24.90;;;10.07;;
71730;SDS011;65964;43.496;3.710;2023-12-04T11:05:14;23.55;;;10.75;;
71730;SDS011;65964;43.496;3.710;2023-12-04T11:07:50;27.02;;;10.40;;
71730;SDS011;65964;43.496;3.710;2023-12-04T11:10:22;22.90;;;9.40;;
71730;SDS011;65964;43.496;3.710;2023-12-04T11:12:56;23.13;;;9.20;;
71730;SDS011;65964;43.496;3.710;2023-12-04T11:15:23;21.52;;;9.55;;
71730;SDS011;65964;43.496;3.710;2023-12-04T11:17:51;18.30;;;9.40;;
71730;SDS011;65964;43.496;3.710;2023-12-04T11:20:20;21.10;;;9.32;;
71730;SDS011;65964;43.496;3.710;2023-12-04T11:22:47;23.63;;;8.55;;
71730;SDS011;65964;43.496;3.710;2023-12-04T11:25:14;19.10;;;9.40;;
71730;SDS011;65964;43.496;3.710;2023-12-04T11:27:41;23.27;;;10.02;;
71730;SDS011;65964;43.496;3.710;2023-12-04T11:30:07;20.95;;;9.45;;
71730;SDS011;65964;43.496;3.710;2023-12-04T11:32:48;22.88;;;9.32;;
71730;SDS011;65964;43.496;3.710;2023-12-04T11:35:14;20.15;;;8.10;;
71730;SDS011;65964;43.496;3.710;2023-12-04T11:37:42;17.73;;;7.50;;
71730;SDS011;65964;43.496;3.710;2023-12-04T11:40:12;16.08;;;7.40;;
71730;SDS011;65964;43.496;3.710;2023-12-04T11:42:38;11.20;;;5.50;;
71730;SDS011;65964;43.496;3.710;2023-12-04T11:45:04;13.48;;;4.80;;
71730;SDS011;65964;43.496;3.710;2023-12-04T11:47:31;11.65;;;5.38;;
71730;SDS011;65964;43.496;3.710;2023-12-04T11:50:14;10.18;;;4.40;;
71730;SDS011;65964;43.496;3.710;2023-12-04T11:52:40;12.13;;;4.75;;
71730;SDS011;65964;43.496;3.710;2023-12-04T11:55:06;13.35;;;5.60;;
71730;SDS011;65964;43.496;3.710;2023-12-04T11:57:33;12.35;;;6.10;;
71730;SDS011;65964;43.496;3.710;2023-12-04T12:00:08;10.25;;;6.28;;
71730;SDS011;65964;43.496;3.710;2023-12-04T12:02:34;14.18;;;4.82;;
71730;SDS011;65964;43.496;3.710;2023-12-04T12:05:00;12.50;;;4.30;;
71730;SDS011;65964;43.496;3.710;2023-12-04T12:07:27;12.48;;;4.68;;
71730;SDS011;65964;43.496;3.710;2023-12-04T12:09:53;12.25;;;5.07;;
71730;SDS011;65964;43.496;3.710;2023-12-04T12:12:19;12.77;;;5.35;;
71730;SDS011;65964;43.496;3.710;2023-12-04T12:14:45;13.05;;;4.43;;
71730;SDS011;65964;43.496;3.710;2023-12-04T12:17:11;12.05;;;4.63;;
71730;SDS011;65964;43.496;3.710;2023-12-04T12:19:38;9.63;;;4.30;;
71730;SDS011;65964;43.496;3.710;2023-12-04T12:22:04;10.52;;;4.35;;
71730;SDS011;65964;43.496;3.710;2023-12-04T12:24:31;11.32;;;4.60;;
71730;SDS011;65964;43.496;3.710;2023-12-04T12:26:57;12.57;;;4.70;;
71730;SDS011;65964;43.496;3.710;2023-12-04T12:29:23;12.23;;;4.57;;
71730;SDS011;65964;43.496;3.710;2023-12-04T12:31:49;12.80;;;4.82;;
71730;SDS011;65964;43.496;3.710;2023-12-04T12:34:16;14.32;;;4.93;;
71730;SDS011;65964;43.496;3.710;2023-12-04T12:36:42;9.20;;;4.47;;
71730;SDS011;65964;43.496;3.710;2023-12-04T12:39:08;14.15;;;4.22;;
71730;SDS011;65964;43.496;3.710;2023-12-04T12:41:35;13.25;;;4.60;;
71730;SDS011;65964;43.496;3.710;2023-12-04T12:44:01;14.07;;;4.00;;
71730;SDS011;65964;43.496;3.710;2023-12-04T12:46:28;16.25;;;4.47;;
71730;SDS011;65964;43.496;3.710;2023-12-04T12:48:54;12.48;;;4.70;;
71730;SDS011;65964;43.496;3.710;2023-12-04T12:51:20;16.83;;;4.43;;
71730;SDS011;65964;43.496;3.710;2023-12-04T12:53:47;18.67;;;4.90;;
71730;SDS011;65964;43.496;3.710;2023-12-04T12:56:14;13.93;;;4.25;;
71730;SDS011;65964;43.496;3.710;2023-12-04T12:58:40;16.85;;;6.25;;
71730;SDS011;65964;43.496;3.710;2023-12-04T13:01:09;34.35;;;15.77;;
71730;SDS011;65964;43.496;3.710;2023-12-04T13:03:36;25.67;;;11.50;;
71730;SDS011;65964;43.496;3.710;2023-12-04T13:06:03;24.17;;;7.25;;
71730;SDS011;65964;43.496;3.710;2023-12-04T13:08:29;18.90;;;7.35;;
71730;SDS011;65964;43.496;3.710;2023-12-04T13:10:55;24.95;;;10.93;;
71730;SDS011;65964;43.496;3.710;2023-12-04T13:13:21;8.95;;;4.60;;
71730;SDS011;65964;43.496;3.710;2023-12-04T13:15:47;14.93;;;4.65;;
71730;SDS011;65964;43.496;3.710;2023-12-04T13:18:13;17.73;;;4.20;;
71730;SDS011;65964;43.496;3.710;2023-12-04T13:20:39;11.63;;;4.22;;
71730;SDS011;65964;43.496;3.710;2023-12-04T13:23:05;25.88;;;7.95;;
71730;SDS011;65964;43.496;3.710;2023-12-04T13:25:31;23.02;;;6.47;;
71730;SDS011;65964;43.496;3.710;2023-12-04T13:27:58;21.20;;;5.97;;
71730;SDS011;65964;43.496;3.710;2023-12-04T13:30:24;14.90;;;5.82;;
71730;SDS011;65964;43.496;3.710;2023-12-04T13:32:50;15.10;;;4.75;;
71730;SDS011;65964;43.496;3.710;2023-12-04T13:35:17;12.82;;;3.67;;
71730;SDS011;65964;43.496;3.710;2023-12-04T13:37:43;14.27;;;3.45;;
71730;SDS011;65964;43.496;3.710;2023-12-04T13:40:09;15.07;;;6.82;;
71730;SDS011;65964;43.496;3.710;2023-12-04T13:42:41;24.63;;;9.95;;
71730;SDS011;65964;43.496;3.710;2023-12-04T13:45:25;15.53;;;4.67;;
71730;SDS011;65964;43.496;3.710;2023-12-04T13:47:51;11.32;;;5.55;;
71730;SDS011;65964;43.496;3.710;2023-12-04T13:50:18;12.90;;;4.72;;
71730;SDS011;65964;43.496;3.710;2023-12-04T13:52:44;14.75;;;4.30;;
71730;SDS011;65964;43.496;3.710;2023-12-04T13:55:17;25.73;;;12.35;;
71730;SDS011;65964;43.496;3.710;2023-12-04T13:57:56;17.02;;;8.35;;
71730;SDS011;65964;43.496;3.710;2023-12-04T14:00:25;10.57;;;4.10;;
71730;SDS011;65964;43.496;3.710;2023-12-04T14:02:51;26.92;;;8.45;;
71730;SDS011;65964;43.496;3.710;2023-12-04T14:05:29;15.68;;;7.32;;
71730;SDS011;65964;43.496;3.710;2023-12-04T14:07:55;17.15;;;6.90;;
71730;SDS011;65964;43.496;3.710;2023-12-04T14:10:22;10.40;;;3.42;;
71730;SDS011;65964;43.496;3.710;2023-12-04T14:12:50;10.27;;;3.95;;
71730;SDS011;65964;43.496;3.710;2023-12-04T14:15:16;10.15;;;3.88;;
71730;SDS011;65964;43.496;3.710;2023-12-04T14:17:42;9.63;;;3.47;;
71730;SDS011;65964;43.496;3.710;2023-12-04T14:20:08;6.85;;;2.78;;
71730;SDS011;65964;43.496;3.710;2023-12-04T14:22:43;6.75;;;2.67;;
71730;SDS011;65964;43.496;3.710;2023-12-04T14:25:10;12.10;;;2.95;;
71730;SDS011;65964;43.496;3.710;2023-12-04T14:27:36;7.10;;;2.60;;
71730;SDS011;65964;43.496;3.710;2023-12-04T14:30:06;6.80;;;2.20;;
71730;SDS011;65964;43.496;3.710;2023-12-04T14:32:33;8.88;;;2.95;;
71730;SDS011;65964;43.496;3.710;2023-12-04T14:34:59;7.85;;;2.85;;